createdAt,value
2023-04-09T00:01:09.480Z,14.90
2023-04-09T00:03:39.456Z,17.60
2023-04-09T00:06:07.866Z,14.40
2023-04-09T00:08:36.228Z,17.50
2023-04-09T00:11:04.888Z,17.30
2023-04-09T00:13:39.032Z,15.60
2023-04-09T00:16:08.862Z,17.20
2023-04-09T00:18:37.352Z,18.60
2023-04-09T00:21:05.996Z,20.00
2023-04-09T00:23:34.893Z,15.10
2023-04-09T00:26:03.305Z,16.30
2023-04-09T00:28:31.580Z,14.80
2023-04-09T00:30:59.818Z,14.50
2023-04-09T00:33:28.136Z,18.10
2023-04-09T00:35:57.037Z,21.20
2023-04-09T00:38:25.170Z,20.70
2023-04-09T00:40:53.435Z,20.80
2023-04-09T00:43:21.852Z,17.50
2023-04-09T00:45:50.221Z,15.90
2023-04-09T00:48:18.573Z,18.40
2023-04-09T00:50:46.781Z,15.30
2023-04-09T00:53:16.254Z,14.20
2023-04-09T00:55:46.001Z,12.90
2023-04-09T00:58:14.949Z,13.90
2023-04-09T01:00:43.022Z,13.00
2023-04-09T01:03:11.435Z,14.10
2023-04-09T01:05:50.526Z,14.30
2023-04-09T01:08:47.188Z,13.80
2023-04-09T01:11:32.310Z,14.60
2023-04-09T01:14:19.769Z,14.30
2023-04-09T01:16:56.009Z,15.10
2023-04-09T01:19:44.682Z,13.70
2023-04-09T01:22:35.719Z,13.60
2023-04-09T01:25:15.895Z,11.30
2023-04-09T01:28:19.769Z,10.20
2023-04-09T01:30:51.228Z,10.90
2023-04-09T01:33:21.497Z,10.80
2023-04-09T01:35:51.135Z,11.50
2023-04-09T01:38:22.003Z,12.20
2023-04-09T01:40:51.102Z,12.40
2023-04-09T01:43:20.367Z,13.40
2023-04-09T01:45:48.999Z,13.40
2023-04-09T01:48:17.078Z,13.10
2023-04-09T01:50:45.809Z,10.40
2023-04-09T01:53:14.391Z,13.20
2023-04-09T01:55:42.380Z,12.40
2023-04-09T01:58:10.429Z,12.70
2023-04-09T02:00:43.820Z,12.90
2023-04-09T02:03:22.302Z,15.00
2023-04-09T02:05:57.724Z,13.50
2023-04-09T02:08:28.314Z,13.90
2023-04-09T02:10:59.250Z,14.30
2023-04-09T02:13:30.030Z,12.40
2023-04-09T02:16:00.310Z,14.80
2023-04-09T02:18:30.336Z,12.80
2023-04-09T02:20:59.587Z,12.50
2023-04-09T02:23:27.809Z,12.00
2023-04-09T02:25:56.691Z,14.30
2023-04-09T02:28:24.648Z,12.20
2023-04-09T02:30:52.939Z,12.90
2023-04-09T02:33:21.103Z,14.50
2023-04-09T02:35:49.131Z,14.60
2023-04-09T02:38:17.355Z,15.10
2023-04-09T02:40:45.851Z,16.00
2023-04-09T02:43:13.776Z,16.50
2023-04-09T02:45:41.975Z,14.20
2023-04-09T02:48:09.979Z,14.60
2023-04-09T02:50:37.936Z,14.10
2023-04-09T02:53:06.091Z,13.30
2023-04-09T02:55:34.072Z,12.90
2023-04-09T02:58:02.125Z,12.20
2023-04-09T03:00:30.135Z,13.40
2023-04-09T03:02:58.487Z,13.40
2023-04-09T03:05:26.959Z,15.90
2023-04-09T03:07:55.133Z,15.10
2023-04-09T03:10:23.203Z,15.90
2023-04-09T03:12:51.483Z,18.90
2023-04-09T03:15:19.556Z,14.30
2023-04-09T03:17:47.455Z,16.10
2023-04-09T03:20:15.619Z,13.90
2023-04-09T03:22:43.761Z,12.20
2023-04-09T03:27:50.185Z,14.30
2023-04-09T03:30:23.845Z,13.30
2023-04-09T03:32:51.883Z,14.50
2023-04-09T03:35:21.837Z,14.30
2023-04-09T03:37:50.925Z,14.10
2023-04-09T03:40:19.007Z,14.90
2023-04-09T03:42:47.210Z,14.20
2023-04-09T03:45:16.475Z,12.50
2023-04-09T03:47:46.994Z,14.80
2023-04-09T03:50:15.211Z,13.80
2023-04-09T03:52:52.487Z,12.00
2023-04-09T03:55:21.246Z,12.30
2023-04-09T03:57:49.362Z,11.80
2023-04-09T04:00:19.172Z,12.90
2023-04-09T04:03:07.014Z,13.00
2023-04-09T04:05:50.055Z,13.60
2023-04-09T04:08:18.365Z,13.60
2023-04-09T04:10:46.943Z,11.50
2023-04-09T04:13:16.220Z,11.00
2023-04-09T04:15:50.062Z,11.50
2023-04-09T04:18:21.605Z,13.80
2023-04-09T04:20:52.128Z,14.20
2023-04-09T04:23:20.430Z,14.20
2023-04-09T04:26:11.250Z,13.60
2023-04-09T04:28:40.955Z,13.70
2023-04-09T04:31:11.821Z,15.00
2023-04-09T04:33:42.812Z,14.50
2023-04-09T04:36:14.871Z,13.90
2023-04-09T04:38:46.333Z,14.00
2023-04-09T04:41:21.980Z,12.50
2023-04-09T04:43:57.531Z,12.10
2023-04-09T04:46:25.714Z,14.60
2023-04-09T04:48:54.117Z,13.80
2023-04-09T04:51:22.947Z,14.40
2023-04-09T04:54:01.589Z,15.00
2023-04-09T04:56:30.095Z,13.90
2023-04-09T04:59:09.175Z,17.90
2023-04-09T05:01:47.778Z,14.70
2023-04-09T05:04:16.480Z,15.10
2023-04-09T05:06:44.461Z,15.70
2023-04-09T05:09:14.979Z,12.60
2023-04-09T05:11:49.720Z,13.10
2023-04-09T05:14:21.768Z,23.00
2023-04-09T05:16:50.065Z,20.80
2023-04-09T05:19:19.799Z,23.10
2023-04-09T05:21:48.236Z,23.10
2023-04-09T05:24:21.124Z,19.70
2023-04-09T05:26:49.223Z,19.10
2023-04-09T05:29:17.984Z,15.10
2023-04-09T05:31:46.415Z,15.50
2023-04-09T05:34:47.518Z,15.00
2023-04-09T05:37:16.496Z,16.00
2023-04-09T05:39:47.719Z,14.60
2023-04-09T05:42:16.428Z,16.20
2023-04-09T05:45:12.677Z,17.90
2023-04-09T05:47:47.521Z,20.20
2023-04-09T05:50:21.044Z,19.10
2023-04-09T05:52:50.599Z,17.80
2023-04-09T05:55:18.883Z,20.20
2023-04-09T05:57:53.498Z,20.70
2023-04-09T06:00:22.192Z,19.10
2023-04-09T06:02:51.053Z,19.50
2023-04-09T06:05:19.123Z,18.90
2023-04-09T06:07:48.760Z,17.60
2023-04-09T06:10:16.927Z,18.80
2023-04-09T06:12:45.558Z,17.30
2023-04-09T06:15:13.578Z,16.90
2023-04-09T06:17:41.605Z,16.10
2023-04-09T06:20:10.581Z,16.40
2023-04-09T06:22:38.512Z,13.80
2023-04-09T06:25:07.413Z,14.30
2023-04-09T06:27:35.809Z,14.60
2023-04-09T06:30:04.153Z,12.70
2023-04-09T06:32:33.766Z,11.00
2023-04-09T06:35:10.818Z,11.60
2023-04-09T06:37:39.431Z,12.00
2023-04-09T06:40:08.538Z,11.60
2023-04-09T06:42:36.794Z,12.20
2023-04-09T06:45:16.487Z,11.70
2023-04-09T06:47:45.672Z,11.50
2023-04-09T06:50:14.015Z,11.80
2023-04-09T06:52:42.230Z,10.40
2023-04-09T06:55:10.892Z,9.90
2023-04-09T06:57:39.468Z,9.70
2023-04-09T07:00:08.586Z,11.10
2023-04-09T07:02:37.901Z,10.40
2023-04-09T07:05:06.768Z,9.40
2023-04-09T07:07:34.762Z,9.70
2023-04-09T07:10:03.026Z,9.20
2023-04-09T07:12:32.950Z,12.00
2023-04-09T07:15:03.043Z,10.60
2023-04-09T07:17:31.827Z,9.00
2023-04-09T07:20:00.275Z,9.40
2023-04-09T07:22:29.482Z,9.60
2023-04-09T07:24:57.762Z,8.90
2023-04-09T07:27:27.997Z,8.50
2023-04-09T07:29:57.816Z,7.80
2023-04-09T07:32:28.555Z,8.20
2023-04-09T07:34:57.684Z,10.80
2023-04-09T07:37:27.327Z,8.60
2023-04-09T07:39:55.742Z,8.00
2023-04-09T07:42:24.089Z,8.40
2023-04-09T07:44:52.075Z,8.80
2023-04-09T07:47:20.077Z,9.00
2023-04-09T07:49:48.196Z,9.00
2023-04-09T07:52:16.474Z,10.20
2023-04-09T07:54:44.453Z,8.90
2023-04-09T07:57:12.433Z,8.70
2023-04-09T07:59:41.142Z,8.60
2023-04-09T08:02:09.454Z,9.40
2023-04-09T08:04:38.504Z,10.60
2023-04-09T08:07:06.676Z,10.90
2023-04-09T08:09:34.617Z,10.60
2023-04-09T08:12:02.853Z,10.00
2023-04-09T08:14:30.878Z,9.60
2023-04-09T08:17:00.363Z,10.40
2023-04-09T08:19:28.548Z,10.40
2023-04-09T08:21:56.938Z,11.50
2023-04-09T08:24:25.085Z,10.70
2023-04-09T08:26:53.274Z,11.50
2023-04-09T08:29:21.744Z,10.40
2023-04-09T08:31:49.967Z,9.00
2023-04-09T08:34:21.305Z,10.60
2023-04-09T08:36:50.337Z,11.50
2023-04-09T08:39:21.707Z,11.20
2023-04-09T08:41:52.044Z,10.70
2023-04-09T08:44:21.992Z,9.90
2023-04-09T08:46:51.348Z,11.50
2023-04-09T08:49:19.829Z,8.90
2023-04-09T08:51:51.072Z,9.40
2023-04-09T08:54:22.012Z,10.10
2023-04-09T08:56:50.001Z,8.90
2023-04-09T08:59:21.206Z,9.10
2023-04-09T09:01:54.586Z,9.00
2023-04-09T09:04:22.888Z,10.20
2023-04-09T09:06:51.370Z,9.10
2023-04-09T09:09:19.762Z,7.40
2023-04-09T09:11:51.183Z,10.80
2023-04-09T09:14:20.295Z,8.50
2023-04-09T09:16:58.015Z,7.60
2023-04-09T09:19:26.603Z,7.40
2023-04-09T09:22:06.730Z,7.10
2023-04-09T09:24:48.358Z,7.40
2023-04-09T09:27:40.816Z,8.30
2023-04-09T09:30:11.041Z,7.90
2023-04-09T09:32:39.460Z,9.20
2023-04-09T09:35:08.293Z,7.20
2023-04-09T09:37:36.569Z,9.20
2023-04-09T09:40:05.940Z,8.90
2023-04-09T09:42:34.215Z,7.40
2023-04-09T09:45:17.648Z,7.60
2023-04-09T09:47:46.795Z,9.80
2023-04-09T09:50:15.026Z,9.20
2023-04-09T09:52:46.668Z,7.90
2023-04-09T09:55:17.504Z,9.20
2023-04-09T09:57:48.610Z,9.30
2023-04-09T10:00:18.618Z,7.70
2023-04-09T10:02:57.679Z,7.50
2023-04-09T10:05:27.884Z,8.00
2023-04-09T10:07:58.261Z,8.00
2023-04-09T10:10:27.886Z,8.90
2023-04-09T10:12:56.737Z,7.30
2023-04-09T10:15:26.408Z,8.00
2023-04-09T10:17:56.260Z,6.50
2023-04-09T10:20:42.141Z,7.40
2023-04-09T10:23:19.838Z,8.10
2023-04-09T10:25:47.865Z,7.20
2023-04-09T10:28:18.861Z,7.40
2023-04-09T10:30:46.986Z,8.70
2023-04-09T10:33:17.617Z,8.10
2023-04-09T10:35:49.035Z,9.00
2023-04-09T10:38:16.995Z,7.60
2023-04-09T10:40:53.498Z,8.10
2023-04-09T10:43:22.437Z,7.00
2023-04-09T10:45:54.558Z,8.20
2023-04-09T10:48:26.262Z,6.50
2023-04-09T10:50:55.558Z,7.30
2023-04-09T10:53:25.718Z,6.50
2023-04-09T10:55:54.564Z,8.10
2023-04-09T10:58:22.561Z,5.80
2023-04-09T11:00:51.837Z,7.60
2023-04-09T11:03:29.040Z,7.50
2023-04-09T11:06:11.814Z,6.30
2023-04-09T11:08:39.906Z,6.80
2023-04-09T11:11:08.091Z,7.20
2023-04-09T11:13:36.376Z,6.20
2023-04-09T11:16:07.360Z,6.30
2023-04-09T11:18:37.317Z,6.40
2023-04-09T11:21:06.002Z,6.90
2023-04-09T11:23:34.479Z,5.90
2023-04-09T11:26:03.003Z,6.20
2023-04-09T11:28:31.279Z,6.10
2023-04-09T11:30:59.311Z,6.90
2023-04-09T11:33:34.533Z,5.50
2023-04-09T11:36:05.901Z,5.60
2023-04-09T11:38:34.007Z,5.80
2023-04-09T11:41:02.363Z,7.80
2023-04-09T11:43:30.406Z,6.00
2023-04-09T11:45:59.634Z,5.60
2023-04-09T11:48:28.187Z,6.30
2023-04-09T11:50:57.492Z,6.40
2023-04-09T11:53:31.201Z,6.50
2023-04-09T11:55:59.773Z,6.50
2023-04-09T11:58:28.261Z,5.80
2023-04-09T12:00:58.976Z,7.30
2023-04-09T12:03:33.460Z,6.00
2023-04-09T12:06:03.792Z,7.10
2023-04-09T12:08:35.154Z,7.80
2023-04-09T12:11:10.781Z,5.90
2023-04-09T12:13:44.767Z,6.80
2023-04-09T12:16:13.928Z,5.50
2023-04-09T12:18:42.053Z,6.00
2023-04-09T12:21:10.505Z,5.50
2023-04-09T12:23:38.775Z,6.00
2023-04-09T12:26:06.850Z,6.30
2023-04-09T12:28:36.052Z,6.00
2023-04-09T12:31:04.114Z,6.50
2023-04-09T12:33:32.598Z,5.80
2023-04-09T12:36:00.790Z,6.10
2023-04-09T12:38:29.049Z,7.20
2023-04-09T12:40:57.259Z,6.50
2023-04-09T12:43:25.593Z,7.00
2023-04-09T12:45:53.601Z,6.70
2023-04-09T12:48:21.650Z,5.80
2023-04-09T12:50:49.717Z,6.40
2023-04-09T12:53:17.887Z,5.80
2023-04-09T12:55:46.043Z,7.50
2023-04-09T12:58:13.954Z,4.80
2023-04-09T13:00:42.012Z,4.90
2023-04-09T13:03:10.282Z,5.80
2023-04-09T13:05:38.455Z,4.80
2023-04-09T13:08:07.051Z,4.70
2023-04-09T13:10:35.919Z,5.40
2023-04-09T13:13:03.986Z,4.70
2023-04-09T13:15:32.471Z,4.60
2023-04-09T13:18:00.549Z,5.10
2023-04-09T13:20:28.498Z,4.40
2023-04-09T13:22:57.086Z,4.60
2023-04-09T13:25:25.161Z,5.40
2023-04-09T13:27:53.229Z,5.20
2023-04-09T13:30:24.376Z,5.10
2023-04-09T13:32:52.430Z,6.70
2023-04-09T13:35:20.627Z,4.80
2023-04-09T13:37:48.785Z,4.70
2023-04-09T13:40:17.286Z,5.20
2023-04-09T13:42:45.548Z,4.70
2023-04-09T13:45:13.753Z,5.50
2023-04-09T13:47:43.222Z,5.00
2023-04-09T13:50:13.260Z,5.20
2023-04-09T13:52:41.309Z,4.70
2023-04-09T13:55:09.792Z,5.10
2023-04-09T13:57:37.712Z,4.70
2023-04-09T14:00:09.277Z,5.10
2023-04-09T14:02:37.336Z,4.60
2023-04-09T14:05:06.165Z,5.70
2023-04-09T14:07:34.211Z,5.30
2023-04-09T14:10:02.930Z,5.00
2023-04-09T14:12:31.304Z,5.10
2023-04-09T14:14:59.289Z,4.70
2023-04-09T14:17:27.404Z,4.30
2023-04-09T14:19:55.519Z,5.00
2023-04-09T14:22:23.499Z,5.10
2023-04-09T14:24:51.670Z,4.80
2023-04-09T14:27:20.088Z,6.20
2023-04-09T14:29:48.922Z,6.70
2023-04-09T14:32:17.537Z,5.70
2023-04-09T14:34:46.861Z,4.80
2023-04-09T14:37:14.889Z,5.30
2023-04-09T14:39:42.962Z,5.30
2023-04-09T14:42:11.124Z,5.60
2023-04-09T14:44:39.195Z,6.50
2023-04-09T14:47:07.365Z,6.70
2023-04-09T14:49:35.445Z,5.60
2023-04-09T14:52:03.888Z,5.60
2023-04-09T14:54:33.369Z,6.50
2023-04-09T14:57:03.685Z,6.30
2023-04-09T14:59:31.741Z,6.60
2023-04-09T15:01:59.925Z,5.70
2023-04-09T15:04:28.369Z,7.50
2023-04-09T15:06:56.445Z,6.70
2023-04-09T15:09:24.770Z,8.50
2023-04-09T15:11:54.348Z,7.20
2023-04-09T15:14:23.843Z,10.20
2023-04-09T15:16:55.980Z,13.20
2023-04-09T15:19:24.181Z,6.80
2023-04-09T15:21:52.154Z,7.70
2023-04-09T15:24:20.726Z,6.90
2023-04-09T15:26:49.877Z,8.50
2023-04-09T15:29:19.056Z,8.90
2023-04-09T15:31:47.334Z,7.80
2023-04-09T15:34:16.183Z,18.80
2023-04-09T15:36:46.122Z,36.50
2023-04-09T15:39:14.232Z,9.70
2023-04-09T15:41:42.156Z,11.60
2023-04-09T15:44:10.506Z,9.40
2023-04-09T15:46:38.803Z,7.70
2023-04-09T15:49:07.066Z,7.30
2023-04-09T15:51:35.038Z,7.90
2023-04-09T15:54:03.006Z,6.60
2023-04-09T15:56:31.185Z,9.40
2023-04-09T15:59:02.222Z,8.20
2023-04-09T16:01:30.861Z,6.90
2023-04-09T16:03:59.134Z,8.50
2023-04-09T16:06:27.664Z,9.10
2023-04-09T16:08:56.835Z,7.80
2023-04-09T16:11:24.890Z,8.90
2023-04-09T16:13:54.517Z,10.20
2023-04-09T16:16:24.124Z,9.90
2023-04-09T16:18:52.985Z,12.30
2023-04-09T16:21:21.751Z,10.60
2023-04-09T16:23:49.808Z,10.40
2023-04-09T16:26:17.746Z,14.50
2023-04-09T16:28:45.885Z,10.10
2023-04-09T16:31:14.220Z,10.60
2023-04-09T16:33:42.135Z,8.90
2023-04-09T16:36:10.420Z,10.70
2023-04-09T16:38:38.544Z,13.50
2023-04-09T16:41:06.612Z,37.40
2023-04-09T16:43:34.679Z,19.10
2023-04-09T16:46:02.867Z,18.00
2023-04-09T16:48:31.372Z,25.40
2023-04-09T16:50:59.292Z,17.10
2023-04-09T16:53:27.945Z,18.20
2023-04-09T16:55:55.914Z,34.80
2023-04-09T16:58:24.050Z,53.40
2023-04-09T17:00:52.353Z,33.30
2023-04-09T17:03:20.833Z,28.60
2023-04-09T17:05:49.515Z,21.20
2023-04-09T17:08:21.847Z,17.80
2023-04-09T17:11:02.369Z,14.70
2023-04-09T17:13:34.314Z,16.50
2023-04-09T17:16:02.970Z,12.40
2023-04-09T17:18:31.112Z,14.30
2023-04-09T17:20:59.880Z,11.50
2023-04-09T17:23:28.001Z,12.10
2023-04-09T17:25:57.147Z,16.50
2023-04-09T17:28:25.822Z,12.80
2023-04-09T17:30:53.919Z,14.10
2023-04-09T17:33:23.368Z,13.90
2023-04-09T17:35:51.539Z,14.80
2023-04-09T17:38:21.753Z,14.80
2023-04-09T17:40:49.940Z,12.80
2023-04-09T17:43:18.608Z,12.60
2023-04-09T17:45:49.354Z,14.80
2023-04-09T17:48:18.353Z,12.60
2023-04-09T17:50:47.364Z,13.70
2023-04-09T17:53:15.359Z,11.90
2023-04-09T17:55:48.874Z,14.80
2023-04-09T17:58:17.359Z,12.90
2023-04-09T18:00:45.528Z,10.40
2023-04-09T18:03:13.727Z,18.40
2023-04-09T18:05:42.754Z,14.80
2023-04-09T18:08:10.867Z,14.40
2023-04-09T18:10:38.904Z,13.10
2023-04-09T18:13:07.057Z,14.20
2023-04-09T18:15:35.107Z,15.30
2023-04-09T18:18:03.181Z,12.50
2023-04-09T18:20:31.123Z,16.50
2023-04-09T18:22:59.116Z,17.20
2023-04-09T18:25:28.796Z,18.80
2023-04-09T18:27:57.383Z,15.80
2023-04-09T18:30:26.523Z,17.30
2023-04-09T18:32:54.590Z,17.10
2023-04-09T18:35:22.945Z,28.10
2023-04-09T18:37:51.369Z,18.60
2023-04-09T18:40:20.405Z,17.70
2023-04-09T18:42:52.621Z,14.90
2023-04-09T18:45:20.758Z,22.80
2023-04-09T18:47:48.852Z,25.30
2023-04-09T18:50:18.833Z,34.70
2023-04-09T18:52:46.897Z,23.20
2023-04-09T18:55:15.904Z,71.40
2023-04-09T18:57:44.504Z,27.60
2023-04-09T19:00:13.167Z,24.90
2023-04-09T19:02:41.574Z,21.40
2023-04-09T19:05:10.578Z,23.00
2023-04-09T19:07:38.931Z,19.20
2023-04-09T19:10:07.647Z,18.30
2023-04-09T19:12:35.711Z,16.70
2023-04-09T19:15:05.107Z,19.50
2023-04-09T19:17:34.238Z,23.70
2023-04-09T19:20:03.368Z,21.20
2023-04-09T19:22:31.543Z,19.00
2023-04-09T19:24:59.549Z,17.70
2023-04-09T19:27:27.649Z,16.30
2023-04-09T19:29:59.069Z,15.90
2023-04-09T19:32:27.741Z,13.60
2023-04-09T19:34:56.051Z,19.50
2023-04-09T19:37:28.336Z,21.50
2023-04-09T19:39:57.978Z,14.30
2023-04-09T19:42:28.870Z,18.70
2023-04-09T19:44:56.978Z,11.00
2023-04-09T19:47:25.093Z,14.90
2023-04-09T19:49:56.395Z,13.70
2023-04-09T19:52:24.431Z,13.60
2023-04-09T19:54:57.083Z,13.40
2023-04-09T19:57:26.662Z,13.60
2023-04-09T19:59:55.624Z,15.60
2023-04-09T20:02:24.188Z,18.30
2023-04-09T20:04:52.606Z,18.70
2023-04-09T20:07:20.890Z,14.80
2023-04-09T20:09:49.793Z,11.80
2023-04-09T20:12:17.840Z,9.90
2023-04-09T20:14:49.002Z,12.30
2023-04-09T20:17:19.970Z,18.00
2023-04-09T20:19:47.907Z,12.70
2023-04-09T20:22:17.088Z,13.30
2023-04-09T20:24:45.018Z,21.10
2023-04-09T20:27:13.024Z,12.30
2023-04-09T20:29:42.221Z,14.10
2023-04-09T20:32:10.435Z,10.30
2023-04-09T20:34:38.465Z,11.60
2023-04-09T20:37:06.845Z,14.40
2023-04-09T20:39:34.818Z,20.50
2023-04-09T20:42:02.784Z,19.30
2023-04-09T20:44:33.806Z,15.80
2023-04-09T20:47:02.956Z,17.00
2023-04-09T20:49:30.995Z,11.20
2023-04-09T20:51:59.710Z,14.30
2023-04-09T20:54:29.633Z,8.00
2023-04-09T20:56:57.965Z,8.50
2023-04-09T20:59:26.572Z,10.30
2023-04-09T21:01:57.360Z,10.70
2023-04-09T21:04:26.336Z,11.10
2023-04-09T21:06:54.753Z,9.50
2023-04-09T21:09:22.828Z,9.80
2023-04-09T21:11:51.202Z,10.60
2023-04-09T21:14:19.499Z,10.50
2023-04-09T21:16:47.784Z,13.40
2023-04-09T21:19:16.239Z,15.70
2023-04-09T21:21:44.182Z,13.50
2023-04-09T21:24:12.179Z,12.30
2023-04-09T21:26:51.176Z,10.10
2023-04-09T21:29:23.895Z,12.80
2023-04-09T21:31:51.862Z,13.70
2023-04-09T21:34:20.035Z,22.80
2023-04-09T21:36:48.734Z,17.90
2023-04-09T21:39:16.932Z,21.20
2023-04-09T21:41:44.976Z,16.20
2023-04-09T21:44:13.673Z,16.80
2023-04-09T21:46:41.951Z,14.20
2023-04-09T21:49:10.108Z,13.30
2023-04-09T21:51:40.128Z,12.70
2023-04-09T21:54:09.869Z,12.80
2023-04-09T21:56:39.552Z,11.10
2023-04-09T21:59:07.845Z,13.60
2023-04-09T22:01:36.091Z,14.30
2023-04-09T22:04:04.568Z,35.40
2023-04-09T22:06:33.375Z,45.10
2023-04-09T22:09:02.169Z,23.90
2023-04-09T22:11:30.746Z,33.20
2023-04-09T22:13:59.106Z,183.00
2023-04-09T22:16:27.420Z,104.00
2023-04-09T22:18:56.638Z,92.70
2023-04-09T22:21:25.485Z,85.50
2023-04-09T22:23:53.646Z,124.10
2023-04-09T22:26:22.229Z,73.00
2023-04-09T22:28:50.521Z,69.70
2023-04-09T22:31:18.552Z,61.60
2023-04-09T22:33:46.644Z,21.60
2023-04-09T22:36:14.938Z,12.00
2023-04-09T22:38:42.990Z,15.30
2023-04-09T22:41:11.064Z,10.20
2023-04-09T22:43:39.177Z,12.50
2023-04-09T22:46:07.411Z,11.20
2023-04-09T22:48:40.825Z,16.80
2023-04-09T22:51:13.895Z,39.30
2023-04-09T22:53:42.088Z,61.70
2023-04-09T22:56:10.215Z,29.60
2023-04-09T22:58:39.036Z,57.60
2023-04-09T23:01:07.819Z,65.40
2023-04-09T23:03:36.121Z,162.00
2023-04-09T23:06:04.383Z,183.70
2023-04-09T23:08:32.434Z,80.30
2023-04-09T23:11:00.434Z,42.40
2023-04-09T23:13:28.378Z,28.60
2023-04-09T23:15:56.389Z,48.30
2023-04-09T23:18:24.415Z,87.30
2023-04-09T23:20:52.483Z,41.90
2023-04-09T23:23:20.503Z,38.80
2023-04-09T23:25:48.436Z,34.00
2023-04-09T23:28:16.721Z,26.60
2023-04-09T23:30:44.668Z,21.30
2023-04-09T23:33:12.758Z,20.70
2023-04-09T23:35:41.213Z,16.40
2023-04-09T23:38:09.609Z,14.30
2023-04-09T23:40:37.561Z,21.80
2023-04-09T23:43:05.539Z,52.70
2023-04-09T23:45:33.528Z,44.90
2023-04-09T23:48:02.547Z,39.40
2023-04-09T23:50:31.026Z,17.40
2023-04-09T23:53:01.204Z,13.10
2023-04-09T23:55:29.368Z,13.60
2023-04-09T23:57:57.444Z,14.90
